Time,TemperatureF,DewpointF,PressureIn,WindDirection,WindDirectionDegrees,WindSpeedMPH,WindSpeedGustMPH,Humidity,HourlyPrecipIn,Conditions,Clouds,dailyrainin,SolarRadiationWatts/m^2,SoftwareType,DateUTC
2013-03-23 00:01:00,56.8,31.5,29.73,SE,130,2.0,2.0,38,0.00,,,0.00,0,WeatherCatV1.11B39,2013-03-23 07:01:00,
2013-03-23 00:06:00,56.7,32.0,29.73,SE,130,1.0,2.0,39,0.00,,,0.00,0,WeatherCatV1.11B39,2013-03-23 07:06:00,
2013-03-23 00:11:00,57.2,32.5,29.73,SE,130,1.0,1.0,39,0.00,,,0.00,0,WeatherCatV1.11B39,2013-03-23 07:11:00,
2013-03-23 00:16:00,57.0,32.3,29.74,SE,129,0.0,1.0,39,0.00,,,0.00,0,WeatherCatV1.11B39,2013-03-23 07:16:00,
2013-03-23 00:21:00,56.7,32.7,29.74,SE,129,2.0,2.0,40,0.00,,,0.00,0,WeatherCatV1.11B39,2013-03-23 07:21:00,
2013-03-23 00:26:00,57.2,33.1,29.74,SE,129,0.0,2.0,40,0.00,,,0.00,0,WeatherCatV1.11B39,2013-03-23 07:26:00,
2013-03-23 00:31:00,57.4,33.3,29.74,SE,129,1.0,3.0,40,0.00,,,0.00,0,WeatherCatV1.11B39,2013-03-23 07:31:00,
2013-03-23 00:36:00,57.9,33.1,29.74,SE,127,2.0,4.0,39,0.00,,,0.00,0,WeatherCatV1.11B39,2013-03-23 07:36:00,
2013-03-23 00:41:00,57.9,33.1,29.74,SE,124,2.0,3.0,39,0.00,,,0.00,0,WeatherCatV1.11B39,2013-03-23 07:41:00,
2013-03-23 00:46:00,57.8,33.0,29.74,SE,124,0.0,2.0,39,0.00,,,0.00,0,WeatherCatV1.11B39,2013-03-23 07:46:00,
2013-03-23 00:51:00,57.8,33.0,29.74,SE,124,0.0,0.0,39,0.00,,,0.00,0,WeatherCatV1.11B39,2013-03-23 07:51:00,
2013-03-23 00:56:00,57.2,32.5,29.75,ESE,123,0.0,0.0,39,0.00,,,0.00,0,WeatherCatV1.11B39,2013-03-23 07:56:00,
2013-03-23 01:01:00,57.7,32.3,29.75,NE,54,2.0,4.0,38,0.00,,,0.00,0,WeatherCatV1.11B39,2013-03-23 08:01:00,
2013-03-23 01:06:00,58.4,32.2,29.75,NE,53,3.0,3.0,37,0.00,,,0.00,0,WeatherCatV1.11B39,2013-03-23 08:06:00,
2013-03-23 01:11:00,58.5,31.6,29.75,NE,53,0.0,1.0,36,0.00,,,0.00,0,WeatherCatV1.11B39,2013-03-23 08:11:00,
2013-03-23 01:16:00,58.6,31.7,29.75,NE,54,1.0,3.0,36,0.00,,,0.00,0,WeatherCatV1.11B39,2013-03-23 08:16:00,
2013-03-23 01:21:00,58.5,31.6,29.75,NE,55,1.0,1.0,36,0.00,,,0.00,0,WeatherCatV1.11B39,2013-03-23 08:21:00,
2013-03-23 01:26:00,57.7,31.6,29.75,NE,55,3.0,3.0,37,0.00,,,0.00,0,WeatherCatV1.11B39,2013-03-23 08:26:00,
2013-03-23 01:31:00,57.5,32.1,29.75,NE,55,0.0,2.0,38,0.00,,,0.00,0,WeatherCatV1.11B39,2013-03-23 08:31:00,
2013-03-23 01:36:00,57.3,31.9,29.75,NE,55,0.0,1.0,38,0.00,,,0.00,0,WeatherCatV1.11B39,2013-03-23 08:36:00,
2013-03-23 01:41:00,57.1,31.7,29.75,NE,55,0.0,1.0,38,0.00,,,0.00,0,WeatherCatV1.11B39,2013-03-23 08:41:00,
2013-03-23 01:46:00,56.6,31.3,29.75,NE,55,0.0,0.0,38,0.00,,,0.00,0,WeatherCatV1.11B39,2013-03-23 08:46:00,
2013-03-23 01:51:00,55.9,31.3,29.75,NE,55,0.0,1.0,39,0.00,,,0.00,0,WeatherCatV1.11B39,2013-03-23 08:51:00,
2013-03-23 01:56:00,55.0,31.7,29.75,NE,55,1.0,2.0,41,0.00,,,0.00,0,WeatherCatV1.11B39,2013-03-23 08:56:00,
2013-03-23 02:01:00,54.5,31.9,29.75,NE,55,2.0,3.0,42,0.00,,,0.00,0,WeatherCatV1.11B39,2013-03-23 09:01:00,
2013-03-23 02:06:00,54.4,31.8,29.75,NE,55,0.0,1.0,42,0.00,,,0.00,0,WeatherCatV1.11B39,2013-03-23 09:06:00,
2013-03-23 02:11:00,54.2,31.6,29.75,NE,55,0.0,2.0,42,0.00,,,0.00,0,WeatherCatV1.11B39,2013-03-23 09:11:00,
2013-03-23 02:16:00,53.9,31.9,29.75,NE,55,0.0,2.0,43,0.00,,,0.00,0,WeatherCatV1.11B39,2013-03-23 09:16:00,
2013-03-23 02:21:00,53.8,31.8,29.75,NE,55,2.0,3.0,43,0.00,,,0.00,0,WeatherCatV1.11B39,2013-03-23 09:21:00,
2013-03-23 02:26:00,53.9,31.9,29.75,NE,55,1.0,1.0,43,0.00,,,0.00,0,WeatherCatV1.11B39,2013-03-23 09:26:00,
2013-03-23 02:31:00,53.8,31.8,29.75,NE,56,2.0,4.0,43,0.00,,,0.00,0,WeatherCatV1.11B39,2013-03-23 09:31:00,
2013-03-23 02:36:00,54.3,31.7,29.75,NE,56,1.0,2.0,42,0.00,,,0.00,0,WeatherCatV1.11B39,2013-03-23 09:36:00,
2013-03-23 02:41:00,54.1,31.5,29.75,NE,56,1.0,3.0,42,0.00,,,0.00,0,WeatherCatV1.11B39,2013-03-23 09:41:00,
2013-03-23 02:46:00,54.0,31.4,29.75,NE,56,1.0,2.0,42,0.00,,,0.00,0,WeatherCatV1.11B39,2013-03-23 09:46:00,
2013-03-23 02:51:00,53.7,31.7,29.74,NE,56,2.0,3.0,43,0.00,,,0.00,0,WeatherCatV1.11B39,2013-03-23 09:51:00,
2013-03-23 02:56:00,53.8,31.8,29.74,NE,56,0.0,2.0,43,0.00,,,0.00,0,WeatherCatV1.11B39,2013-03-23 09:56:00,
2013-03-23 03:01:00,53.7,31.7,29.74,NE,56,1.0,2.0,43,0.00,,,0.00,0,WeatherCatV1.11B39,2013-03-23 10:01:00,
2013-03-23 03:06:00,53.6,31.7,29.74,NE,56,0.0,2.0,43,0.00,,,0.00,0,WeatherCatV1.11B39,2013-03-23 10:06:00,
2013-03-23 03:11:00,53.6,31.7,29.74,NE,56,1.0,2.0,43,0.00,,,0.00,0,WeatherCatV1.11B39,2013-03-23 10:11:00,
2013-03-23 03:16:00,53.1,31.2,29.75,NE,56,1.0,1.0,43,0.00,,,0.00,0,WeatherCatV1.11B39,2013-03-23 10:16:00,
2013-03-23 03:21:00,52.4,31.1,29.74,NE,56,1.0,3.0,44,0.00,,,0.00,0,WeatherCatV1.11B39,2013-03-23 10:21:00,
2013-03-23 03:26:00,52.1,31.4,29.75,NE,56,0.0,1.0,45,0.00,,,0.00,0,WeatherCatV1.11B39,2013-03-23 10:26:00,
2013-03-23 03:31:00,51.9,31.8,29.74,NE,56,0.0,0.0,46,0.00,,,0.00,0,WeatherCatV1.11B39,2013-03-23 10:31:00,
2013-03-23 03:36:00,51.6,31.5,29.75,NE,56,1.0,1.0,46,0.00,,,0.00,0,WeatherCatV1.11B39,2013-03-23 10:36:00,
2013-03-23 03:41:00,50.9,31.4,29.75,NE,56,1.0,2.0,47,0.00,,,0.00,0,WeatherCatV1.11B39,2013-03-23 10:41:00,
2013-03-23 03:46:00,50.9,31.4,29.75,NE,56,0.0,0.0,47,0.00,,,0.00,0,WeatherCatV1.11B39,2013-03-23 10:46:00,
2013-03-23 03:51:00,50.6,31.6,29.75,NE,56,0.0,0.0,48,0.00,,,0.00,0,WeatherCatV1.11B39,2013-03-23 10:51:00,
2013-03-23 03:56:00,50.6,31.6,29.75,NE,56,0.0,1.0,48,0.00,,,0.00,0,WeatherCatV1.11B39,2013-03-23 10:56:00,
2013-03-23 04:01:00,49.7,31.3,29.75,NE,56,0.0,1.0,49,0.00,,,0.00,0,WeatherCatV1.11B39,2013-03-23 11:01:00,
2013-03-23 04:06:00,49.5,31.6,29.75,NE,56,1.0,3.0,50,0.00,,,0.00,0,WeatherCatV1.11B39,2013-03-23 11:06:00,
2013-03-23 04:11:00,49.3,31.5,29.75,NE,56,0.0,1.0,50,0.00,,,0.00,0,WeatherCatV1.11B39,2013-03-23 11:11:00,
2013-03-23 04:16:00,48.9,32.1,29.76,NE,56,1.0,2.0,52,0.00,,,0.00,0,WeatherCatV1.11B39,2013-03-23 11:16:00,
2013-03-23 04:21:00,48.8,31.5,29.76,NE,56,0.0,1.0,51,0.00,,,0.00,0,WeatherCatV1.11B39,2013-03-23 11:21:00,
2013-03-23 04:26:00,48.8,32.0,29.76,NE,56,1.0,1.0,52,0.00,,,0.00,0,WeatherCatV1.11B39,2013-03-23 11:26:00,
2013-03-23 04:31:00,49.0,32.1,29.76,NE,56,1.0,1.0,52,0.00,,,0.00,0,WeatherCatV1.11B39,2013-03-23 11:31:00,
2013-03-23 04:36:00,49.3,31.9,29.76,NE,56,1.0,2.0,51,0.00,,,0.00,0,WeatherCatV1.11B39,2013-03-23 11:36:00,
2013-03-23 04:41:00,49.3,32.4,29.77,NE,56,1.0,2.0,52,0.00,,,0.00,0,WeatherCatV1.11B39,2013-03-23 11:41:00,
2013-03-23 04:46:00,49.4,32.0,29.77,NE,56,1.0,2.0,51,0.00,,,0.00,0,WeatherCatV1.11B39,2013-03-23 11:46:00,
2013-03-23 04:51:00,49.2,31.9,29.77,NE,56,1.0,2.0,51,0.00,,,0.00,0,WeatherCatV1.11B39,2013-03-23 11:51:00,
2013-03-23 04:56:00,48.7,32.3,29.77,NE,56,0.0,1.0,53,0.00,,,0.00,0,WeatherCatV1.11B39,2013-03-23 11:56:00,
2013-03-23 05:01:00,48.6,32.3,29.77,NE,56,0.0,1.0,53,0.00,,,0.00,0,WeatherCatV1.11B39,2013-03-23 12:01:00,
2013-03-23 05:06:00,48.6,32.3,29.77,NE,56,1.0,1.0,53,0.00,,,0.00,0,WeatherCatV1.11B39,2013-03-23 12:06:00,
2013-03-23 05:11:00,48.3,32.0,29.77,NE,56,1.0,1.0,53,0.00,,,0.00,0,WeatherCatV1.11B39,2013-03-23 12:11:00,
2013-03-23 05:16:00,48.6,32.3,29.77,NE,56,0.0,2.0,53,0.00,,,0.00,0,WeatherCatV1.11B39,2013-03-23 12:16:00,
2013-03-23 05:21:00,48.2,31.9,29.78,NE,56,0.0,2.0,53,0.00,,,0.00,0,WeatherCatV1.11B39,2013-03-23 12:21:00,
2013-03-23 05:26:00,48.1,31.8,29.78,NE,56,0.0,1.0,53,0.00,,,0.00,0,WeatherCatV1.11B39,2013-03-23 12:26:00,
2013-03-23 05:31:00,47.8,32.0,29.78,ENE,57,2.0,3.0,54,0.00,,,0.00,0,WeatherCatV1.11B39,2013-03-23 12:31:00,
2013-03-23 05:36:00,47.5,32.1,29.78,ENE,57,1.0,1.0,55,0.00,,,0.00,0,WeatherCatV1.11B39,2013-03-23 12:36:00,
2013-03-23 05:41:00,47.3,32.4,29.79,ENE,57,2.0,2.0,56,0.00,,,0.00,0,WeatherCatV1.11B39,2013-03-23 12:41:00,
2013-03-23 05:46:00,47.3,32.0,29.78,ENE,57,2.0,3.0,55,0.00,,,0.00,0,WeatherCatV1.11B39,2013-03-23 12:46:00,
2013-03-23 05:51:00,47.3,32.4,29.78,ENE,57,2.0,3.0,56,0.00,,,0.00,0,WeatherCatV1.11B39,2013-03-23 12:51:00,
2013-03-23 05:56:00,47.3,32.4,29.79,NE,56,0.0,2.0,56,0.00,,,0.00,0,WeatherCatV1.11B39,2013-03-23 12:56:00,
2013-03-23 06:01:00,47.8,32.4,29.79,NE,56,0.0,0.0,55,0.00,,,0.00,0,WeatherCatV1.11B39,2013-03-23 13:01:00,
2013-03-23 06:06:00,47.5,32.1,29.79,NE,56,1.0,1.0,55,0.00,,,0.00,0,WeatherCatV1.11B39,2013-03-23 13:06:00,
2013-03-23 06:11:00,47.3,32.0,29.79,NE,56,1.0,3.0,55,0.00,,,0.00,0,WeatherCatV1.11B39,2013-03-23 13:11:00,
2013-03-23 06:16:00,47.5,32.1,29.79,NE,56,0.0,3.0,55,0.00,,,0.00,0,WeatherCatV1.11B39,2013-03-23 13:16:00,
2013-03-23 06:21:00,47.3,31.5,29.80,NE,56,0.0,2.0,54,0.00,,,0.00,0,WeatherCatV1.11B39,2013-03-23 13:21:00,
2013-03-23 06:26:00,46.9,31.6,29.80,NE,56,0.0,2.0,55,0.00,,,0.00,9,WeatherCatV1.11B39,2013-03-23 13:26:00,
2013-03-23 06:31:00,47.2,31.9,29.80,NE,56,2.0,3.0,55,0.00,,,0.00,12,WeatherCatV1.11B39,2013-03-23 13:31:00,
2013-03-23 06:36:00,47.7,31.9,29.80,NE,56,0.0,1.0,54,0.00,,,0.00,16,WeatherCatV1.11B39,2013-03-23 13:36:00,
2013-03-23 06:41:00,47.9,32.1,29.81,NE,56,2.0,3.0,54,0.00,,,0.00,19,WeatherCatV1.11B39,2013-03-23 13:41:00,
2013-03-23 06:46:00,48.4,32.1,29.81,NE,56,1.0,2.0,53,0.00,,,0.00,26,WeatherCatV1.11B39,2013-03-23 13:46:00,
2013-03-23 06:51:00,49.7,32.8,29.82,NE,56,0.0,2.0,52,0.00,,,0.00,35,WeatherCatV1.11B39,2013-03-23 13:51:00,
2013-03-23 06:56:00,50.6,32.7,29.82,NE,56,0.0,4.0,50,0.00,,,0.00,46,WeatherCatV1.11B39,2013-03-23 13:56:00,
2013-03-23 07:01:00,51.3,32.8,29.82,NE,55,1.0,2.0,49,0.00,,,0.00,63,WeatherCatV1.11B39,2013-03-23 14:01:00,
2013-03-23 07:06:00,51.3,32.8,29.82,NE,55,0.0,3.0,49,0.00,,,0.00,76,WeatherCatV1.11B39,2013-03-23 14:06:00,
2013-03-23 07:11:00,52.8,32.6,29.82,NE,55,0.0,2.0,46,0.00,,,0.00,104,WeatherCatV1.11B39,2013-03-23 14:11:00,
2013-03-23 07:16:00,54.4,32.9,29.83,NE,55,0.0,0.0,44,0.00,,,0.00,123,WeatherCatV1.11B39,2013-03-23 14:16:00,
2013-03-23 07:21:00,55.9,33.1,29.83,NE,56,0.0,1.0,42,0.00,,,0.00,142,WeatherCatV1.11B39,2013-03-23 14:21:00,
2013-03-23 07:26:00,56.6,33.2,29.83,NE,56,1.0,2.0,41,0.00,,,0.00,163,WeatherCatV1.11B39,2013-03-23 14:26:00,
2013-03-23 07:31:00,57.1,33.0,29.83,NE,53,2.0,3.0,40,0.00,,,0.00,179,WeatherCatV1.11B39,2013-03-23 14:31:00,
2013-03-23 07:36:00,57.7,32.9,29.84,NE,53,2.0,2.0,39,0.00,,,0.00,195,WeatherCatV1.11B39,2013-03-23 14:36:00,
2013-03-23 07:41:00,58.2,32.7,29.84,NE,53,1.0,3.0,38,0.00,,,0.00,211,WeatherCatV1.11B39,2013-03-23 14:41:00,
2013-03-23 07:46:00,58.7,32.5,29.84,North,11,0.0,4.0,37,0.00,,,0.00,230,WeatherCatV1.11B39,2013-03-23 14:46:00,
2013-03-23 07:51:00,59.2,32.3,29.84,North,9,2.0,2.0,36,0.00,,,0.00,248,WeatherCatV1.11B39,2013-03-23 14:51:00,
2013-03-23 07:56:00,59.8,32.8,29.84,North,9,2.0,3.0,36,0.00,,,0.00,271,WeatherCatV1.11B39,2013-03-23 14:56:00,
2013-03-23 08:01:00,60.2,32.4,29.84,North,9,1.0,4.0,35,0.00,,,0.00,288,WeatherCatV1.11B39,2013-03-23 15:01:00,
2013-03-23 08:06:00,60.8,32.3,29.85,North,9,1.0,4.0,34,0.00,,,0.00,304,WeatherCatV1.11B39,2013-03-23 15:06:00,
2013-03-23 08:11:00,61.3,32.7,29.85,North,1,1.0,3.0,34,0.00,,,0.00,323,WeatherCatV1.11B39,2013-03-23 15:11:00,
2013-03-23 08:16:00,61.6,33.0,29.85,NNW,343,3.0,4.0,34,0.00,,,0.00,341,WeatherCatV1.11B39,2013-03-23 15:16:00,
2013-03-23 08:21:00,61.6,33.0,29.85,NNW,336,0.0,2.0,34,0.00,,,0.00,359,WeatherCatV1.11B39,2013-03-23 15:21:00,
2013-03-23 08:26:00,61.8,33.1,29.85,NW,326,1.0,1.0,34,0.00,,,0.00,380,WeatherCatV1.11B39,2013-03-23 15:26:00,
2013-03-23 08:31:00,62.4,32.9,29.85,NW,314,2.0,4.0,33,0.00,,,0.00,396,WeatherCatV1.11B39,2013-03-23 15:31:00,
2013-03-23 08:36:00,62.7,32.4,29.85,NW,314,0.0,2.0,32,0.00,,,0.00,413,WeatherCatV1.11B39,2013-03-23 15:36:00,
2013-03-23 08:41:00,62.9,33.4,29.85,NW,307,1.0,2.0,33,0.00,,,0.00,434,WeatherCatV1.11B39,2013-03-23 15:41:00,
2013-03-23 08:46:00,63.1,32.8,29.85,West,266,2.0,5.0,32,0.00,,,0.00,452,WeatherCatV1.11B39,2013-03-23 15:46:00,
2013-03-23 08:52:00,63.3,32.9,29.85,SSW,198,1.0,6.0,32,0.00,,,0.00,473,WeatherCatV1.11B39,2013-03-23 15:52:00,
2013-03-23 08:57:00,63.2,32.9,29.85,SSW,198,0.0,4.0,32,0.00,,,0.00,487,WeatherCatV1.11B39,2013-03-23 15:57:00,
2013-03-23 09:02:00,64.1,32.8,29.85,SSW,199,1.0,3.0,31,0.00,,,0.00,503,WeatherCatV1.11B39,2013-03-23 16:02:00,
2013-03-23 09:07:00,64.1,33.6,29.86,SSW,207,3.0,4.0,32,0.00,,,0.00,520,WeatherCatV1.11B39,2013-03-23 16:07:00,
2013-03-23 09:12:00,64.2,33.7,29.86,SW,215,3.0,4.0,32,0.00,,,0.00,534,WeatherCatV1.11B39,2013-03-23 16:12:00,
2013-03-23 09:17:00,64.3,33.0,29.86,South,190,2.0,5.0,31,0.00,,,0.00,555,WeatherCatV1.11B39,2013-03-23 16:17:00,
2013-03-23 09:22:00,64.6,33.3,29.86,South,188,0.0,1.0,31,0.00,,,0.00,568,WeatherCatV1.11B39,2013-03-23 16:22:00,
2013-03-23 09:27:00,65.5,34.1,29.86,SW,220,1.0,2.0,31,0.00,,,0.00,584,WeatherCatV1.11B39,2013-03-23 16:27:00,
2013-03-23 09:32:00,65.9,33.6,29.86,West,274,2.0,5.0,30,0.00,,,0.00,599,WeatherCatV1.11B39,2013-03-23 16:32:00,
2013-03-23 09:37:00,65.9,34.4,29.86,WSW,244,1.0,7.0,31,0.00,,,0.00,617,WeatherCatV1.11B39,2013-03-23 16:37:00,
2013-03-23 09:42:00,65.9,34.4,29.86,South,188,3.0,5.0,31,0.00,,,0.00,628,WeatherCatV1.11B39,2013-03-23 16:42:00,
2013-03-23 09:47:00,66.6,34.2,29.86,WSW,254,7.0,9.0,30,0.00,,,0.00,643,WeatherCatV1.11B39,2013-03-23 16:47:00,
2013-03-23 09:52:00,66.4,33.2,29.86,WNW,295,0.0,3.0,29,0.00,,,0.00,659,WeatherCatV1.11B39,2013-03-23 16:52:00,
2013-03-23 09:57:00,67.2,33.9,29.86,West,261,5.0,10.0,29,0.00,,,0.00,670,WeatherCatV1.11B39,2013-03-23 16:57:00,
2013-03-23 10:02:00,67.3,33.1,29.86,West,261,0.0,3.0,28,0.00,,,0.00,686,WeatherCatV1.11B39,2013-03-23 17:02:00,
2013-03-23 10:07:00,67.5,34.1,29.86,WNW,288,5.0,5.0,29,0.00,,,0.00,696,WeatherCatV1.11B39,2013-03-23 17:07:00,
2013-03-23 10:12:00,67.9,33.6,29.86,WSW,249,7.0,11.0,28,0.00,,,0.00,708,WeatherCatV1.11B39,2013-03-23 17:12:00,
2013-03-23 10:17:00,68.7,34.3,29.86,WSW,241,10.0,11.0,28,0.00,,,0.00,724,WeatherCatV1.11B39,2013-03-23 17:17:00,
2013-03-23 10:22:00,69.5,33.1,29.86,WNW,292,7.0,10.0,26,0.00,,,0.00,735,WeatherCatV1.11B39,2013-03-23 17:22:00,
2013-03-23 10:27:00,69.7,33.3,29.86,SW,234,7.0,9.0,26,0.00,,,0.00,747,WeatherCatV1.11B39,2013-03-23 17:27:00,
2013-03-23 10:32:00,69.8,32.4,29.86,SSW,203,7.0,7.0,25,0.00,,,0.00,759,WeatherCatV1.11B39,2013-03-23 17:32:00,
2013-03-23 10:37:00,70.0,32.6,29.86,SSW,202,7.0,12.0,25,0.00,,,0.00,768,WeatherCatV1.11B39,2013-03-23 17:37:00,
2013-03-23 10:42:00,69.2,31.9,29.86,SW,233,8.0,8.0,25,0.00,,,0.00,779,WeatherCatV1.11B39,2013-03-23 17:42:00,
2013-03-23 10:47:00,69.7,30.2,29.86,SW,229,12.0,13.0,23,0.00,,,0.00,791,WeatherCatV1.11B39,2013-03-23 17:47:00,
2013-03-23 10:52:00,69.7,29.2,29.86,West,265,7.0,12.0,22,0.00,,,0.00,800,WeatherCatV1.11B39,2013-03-23 17:52:00,
2013-03-23 10:57:00,70.2,27.2,29.86,West,273,8.0,11.0,20,0.00,,,0.00,809,WeatherCatV1.11B39,2013-03-23 17:57:00,
2013-03-23 11:02:00,70.2,27.2,29.86,WSW,255,9.0,15.0,20,0.00,,,0.00,817,WeatherCatV1.11B39,2013-03-23 18:02:00,
2013-03-23 11:07:00,70.3,27.3,29.86,WSW,245,9.0,15.0,20,0.00,,,0.00,824,WeatherCatV1.11B39,2013-03-23 18:07:00,
2013-03-23 11:12:00,70.3,27.3,29.86,WNW,288,15.0,17.0,20,0.00,,,0.00,835,WeatherCatV1.11B39,2013-03-23 18:12:00,
2013-03-23 11:17:00,71.0,25.4,29.86,WSW,243,9.0,18.0,18,0.00,,,0.00,842,WeatherCatV1.11B39,2013-03-23 18:17:00,
2013-03-23 11:22:00,70.8,25.2,29.85,SW,230,11.0,17.0,18,0.00,,,0.00,846,WeatherCatV1.11B39,2013-03-23 18:22:00,
2013-03-23 11:27:00,71.8,27.3,29.85,SW,235,11.0,18.0,19,0.00,,,0.00,853,WeatherCatV1.11B39,2013-03-23 18:27:00,
2013-03-23 11:32:00,70.8,25.2,29.86,West,263,13.0,16.0,18,0.00,,,0.00,861,WeatherCatV1.11B39,2013-03-23 18:32:00,
2013-03-23 11:37:00,70.7,26.4,29.86,West,268,12.0,15.0,19,0.00,,,0.00,867,WeatherCatV1.11B39,2013-03-23 18:37:00,
2013-03-23 11:42:00,70.9,25.3,29.85,SW,226,12.0,12.0,18,0.00,,,0.00,872,WeatherCatV1.11B39,2013-03-23 18:42:00,
2013-03-23 11:47:00,72.5,25.2,29.85,SW,234,10.0,14.0,17,0.00,,,0.00,877,WeatherCatV1.11B39,2013-03-23 18:47:00,
2013-03-23 11:52:00,72.3,25.0,29.85,WSW,241,20.0,21.0,17,0.00,,,0.00,881,WeatherCatV1.11B39,2013-03-23 18:52:00,
2013-03-23 11:57:00,72.4,23.7,29.85,West,259,12.0,24.0,16,0.00,,,0.00,884,WeatherCatV1.11B39,2013-03-23 18:57:00,
2013-03-23 12:02:00,72.7,25.4,29.85,WSW,245,10.0,15.0,17,0.00,,,0.00,888,WeatherCatV1.11B39,2013-03-23 19:02:00,
2013-03-23 12:07:00,72.2,25.0,29.85,West,269,8.0,16.0,17,0.00,,,0.00,891,WeatherCatV1.11B39,2013-03-23 19:07:00,
2013-03-23 12:12:00,72.7,22.4,29.85,WNW,292,10.0,17.0,15,0.00,,,0.00,891,WeatherCatV1.11B39,2013-03-23 19:12:00,
2013-03-23 12:17:00,73.3,24.4,29.86,WSW,251,7.0,12.0,16,0.00,,,0.00,893,WeatherCatV1.11B39,2013-03-23 19:17:00,
2013-03-23 12:22:00,73.7,24.7,29.86,WSW,242,9.0,23.0,16,0.00,,,0.00,893,WeatherCatV1.11B39,2013-03-23 19:22:00,
2013-03-23 12:27:00,72.7,23.9,29.86,West,275,7.0,19.0,16,0.00,,,0.00,893,WeatherCatV1.11B39,2013-03-23 19:27:00,
2013-03-23 12:32:00,73.0,22.6,29.86,WSW,247,12.0,25.0,15,0.00,,,0.00,895,WeatherCatV1.11B39,2013-03-23 19:32:00,
2013-03-23 12:37:00,72.9,24.1,29.86,WSW,237,14.0,19.0,16,0.00,,,0.00,896,WeatherCatV1.11B39,2013-03-23 19:37:00,
2013-03-23 12:42:00,73.4,22.9,29.86,West,263,10.0,19.0,15,0.00,,,0.00,893,WeatherCatV1.11B39,2013-03-23 19:42:00,
2013-03-23 12:47:00,73.5,21.4,29.87,SW,235,14.0,21.0,14,0.00,,,0.00,895,WeatherCatV1.11B39,2013-03-23 19:47:00,
2013-03-23 12:52:00,73.2,22.8,29.86,WSW,258,14.0,20.0,15,0.00,,,0.00,891,WeatherCatV1.11B39,2013-03-23 19:52:00,
2013-03-23 12:57:00,73.7,23.2,29.86,WSW,254,14.0,20.0,15,0.00,,,0.00,893,WeatherCatV1.11B39,2013-03-23 19:57:00,
2013-03-23 13:02:00,72.7,22.4,29.86,West,278,17.0,21.0,15,0.00,,,0.00,888,WeatherCatV1.11B39,2013-03-23 20:02:00,
2013-03-23 13:07:00,73.3,22.9,29.85,West,273,11.0,15.0,15,0.00,,,0.00,889,WeatherCatV1.11B39,2013-03-23 20:07:00,
2013-03-23 13:12:00,73.7,23.2,29.85,WSW,245,12.0,16.0,15,0.00,,,0.00,881,WeatherCatV1.11B39,2013-03-23 20:12:00,
2013-03-23 13:17:00,73.7,21.5,29.85,WSW,244,20.0,20.0,14,0.00,,,0.00,875,WeatherCatV1.11B39,2013-03-23 20:17:00,
2013-03-23 13:22:00,73.5,23.0,29.84,WSW,242,15.0,15.0,15,0.00,,,0.00,872,WeatherCatV1.11B39,2013-03-23 20:22:00,
2013-03-23 13:27:00,73.5,21.4,29.84,WSW,245,19.0,24.0,14,0.00,,,0.00,868,WeatherCatV1.11B39,2013-03-23 20:27:00,
2013-03-23 13:32:00,73.4,22.9,29.84,WSW,254,13.0,22.0,15,0.00,,,0.00,860,WeatherCatV1.11B39,2013-03-23 20:32:00,
2013-03-23 13:37:00,73.7,21.5,29.85,WNW,288,10.0,21.0,14,0.00,,,0.00,861,WeatherCatV1.11B39,2013-03-23 20:37:00,
2013-03-23 13:42:00,73.5,21.4,29.84,WSW,256,10.0,20.0,14,0.00,,,0.00,854,WeatherCatV1.11B39,2013-03-23 20:42:00,
2013-03-23 13:47:00,73.3,21.2,29.84,WSW,254,10.0,19.0,14,0.00,,,0.00,844,WeatherCatV1.11B39,2013-03-23 20:47:00,
2013-03-23 13:52:00,73.3,21.2,29.84,West,264,11.0,19.0,14,0.00,,,0.00,842,WeatherCatV1.11B39,2013-03-23 20:52:00,
2013-03-23 13:57:00,73.7,11.4,29.83,West,267,8.0,20.0,9,0.00,,,0.00,837,WeatherCatV1.11B39,2013-03-23 20:57:00,
2013-03-23 14:02:00,73.8,13.8,29.83,West,261,17.0,21.0,10,0.00,,,0.00,828,WeatherCatV1.11B39,2013-03-23 21:02:00,
2013-03-23 14:07:00,73.7,8.8,29.83,WSW,249,10.0,16.0,8,0.00,,,0.00,816,WeatherCatV1.11B39,2013-03-23 21:07:00,
2013-03-23 14:12:00,74.5,9.4,29.83,West,263,11.0,18.0,8,0.00,,,0.00,809,WeatherCatV1.11B39,2013-03-23 21:12:00,
2013-03-23 14:17:00,74.2,9.1,29.83,West,260,10.0,20.0,8,0.00,,,0.00,800,WeatherCatV1.11B39,2013-03-23 21:17:00,
2013-03-23 14:22:00,74.1,9.1,29.84,WNW,288,15.0,17.0,8,0.00,,,0.00,793,WeatherCatV1.11B39,2013-03-23 21:22:00,
2013-03-23 14:27:00,74.6,6.5,29.84,WNW,301,11.0,18.0,7,0.00,,,0.00,786,WeatherCatV1.11B39,2013-03-23 21:27:00,
2013-03-23 14:32:00,74.8,9.6,29.84,West,279,9.0,22.0,8,0.00,,,0.00,770,WeatherCatV1.11B39,2013-03-23 21:32:00,
2013-03-23 14:37:00,74.8,3.3,29.83,West,272,13.0,26.0,6,0.00,,,0.00,761,WeatherCatV1.11B39,2013-03-23 21:37:00,
2013-03-23 14:42:00,74.4,11.9,29.83,WNW,286,14.0,21.0,9,0.00,,,0.00,749,WeatherCatV1.11B39,2013-03-23 21:42:00,
2013-03-23 14:47:00,74.1,2.8,29.83,WSW,256,17.0,23.0,6,0.00,,,0.00,738,WeatherCatV1.11B39,2013-03-23 21:47:00,
2013-03-23 14:52:00,74.3,2.9,29.83,NNW,330,9.0,17.0,6,0.00,,,0.00,728,WeatherCatV1.11B39,2013-03-23 21:52:00,
2013-03-23 14:57:00,74.7,3.2,29.83,West,274,18.0,18.0,6,0.00,,,0.00,714,WeatherCatV1.11B39,2013-03-23 21:57:00,
2013-03-23 15:02:00,74.4,3.0,29.83,WNW,282,18.0,18.0,6,0.00,,,0.00,700,WeatherCatV1.11B39,2013-03-23 22:02:00,
2013-03-23 15:07:00,74.0,2.7,29.83,West,270,11.0,19.0,6,0.00,,,0.00,693,WeatherCatV1.11B39,2013-03-23 22:07:00,
2013-03-23 15:12:00,74.0,2.7,29.83,West,261,11.0,24.0,6,0.00,,,0.00,677,WeatherCatV1.11B39,2013-03-23 22:12:00,
2013-03-23 15:17:00,73.6,2.4,29.83,WSW,247,18.0,21.0,6,0.00,,,0.00,663,WeatherCatV1.11B39,2013-03-23 22:17:00,
2013-03-23 15:22:00,73.1,2.0,29.82,West,272,15.0,22.0,6,0.00,,,0.00,647,WeatherCatV1.11B39,2013-03-23 22:22:00,
2013-03-23 15:27:00,73.5,5.7,29.83,WNW,288,11.0,21.0,7,0.00,,,0.00,631,WeatherCatV1.11B39,2013-03-23 22:27:00,
2013-03-23 15:32:00,74.1,6.1,29.82,West,280,19.0,26.0,7,0.00,,,0.00,613,WeatherCatV1.11B39,2013-03-23 22:32:00,
2013-03-23 15:37:00,73.8,5.9,29.82,West,276,6.0,18.0,7,0.00,,,0.00,603,WeatherCatV1.11B39,2013-03-23 22:37:00,
2013-03-23 15:42:00,73.5,5.7,29.82,West,275,18.0,18.0,7,0.00,,,0.00,582,WeatherCatV1.11B39,2013-03-23 22:42:00,
2013-03-23 15:47:00,73.7,5.8,29.83,WSW,252,11.0,24.0,7,0.00,,,0.00,570,WeatherCatV1.11B39,2013-03-23 22:47:00,
2013-03-23 15:52:00,73.3,2.2,29.82,West,275,16.0,17.0,6,0.00,,,0.00,548,WeatherCatV1.11B39,2013-03-23 22:52:00,
2013-03-23 15:57:00,72.9,1.9,29.82,WSW,249,12.0,15.0,6,0.00,,,0.00,540,WeatherCatV1.11B39,2013-03-23 22:57:00,
2013-03-23 16:02:00,73.6,8.7,29.82,West,259,8.0,22.0,8,0.00,,,0.00,517,WeatherCatV1.11B39,2013-03-23 23:02:00,
2013-03-23 16:07:00,73.5,5.7,29.82,WNW,294,16.0,19.0,7,0.00,,,0.00,504,WeatherCatV1.11B39,2013-03-23 23:07:00,
2013-03-23 16:12:00,73.2,5.5,29.82,West,274,8.0,19.0,7,0.00,,,0.00,487,WeatherCatV1.11B39,2013-03-23 23:12:00,
2013-03-23 16:17:00,73.2,5.5,29.82,West,274,10.0,19.0,7,0.00,,,0.00,466,WeatherCatV1.11B39,2013-03-23 23:17:00,
2013-03-23 16:22:00,73.2,8.4,29.83,West,280,14.0,18.0,8,0.00,,,0.00,450,WeatherCatV1.11B39,2013-03-23 23:22:00,
2013-03-23 16:27:00,72.8,10.7,29.83,West,269,21.0,21.0,9,0.00,,,0.00,432,WeatherCatV1.11B39,2013-03-23 23:27:00,
2013-03-23 16:32:00,72.3,7.7,29.83,WNW,296,15.0,17.0,8,0.00,,,0.00,411,WeatherCatV1.11B39,2013-03-23 23:32:00,
2013-03-23 16:37:00,72.5,7.9,29.82,WNW,284,12.0,20.0,8,0.00,,,0.00,396,WeatherCatV1.11B39,2013-03-23 23:37:00,
2013-03-23 16:42:00,72.2,7.6,29.82,WSW,237,4.0,13.0,8,0.00,,,0.00,378,WeatherCatV1.11B39,2013-03-23 23:42:00,
2013-03-23 16:47:00,72.5,7.9,29.82,WSW,257,13.0,13.0,8,0.00,,,0.00,355,WeatherCatV1.11B39,2013-03-23 23:47:00,
2013-03-23 16:52:00,71.7,7.3,29.82,West,263,9.0,12.0,8,0.00,,,0.00,338,WeatherCatV1.11B39,2013-03-23 23:52:00,
2013-03-23 16:57:00,71.9,7.4,29.82,WNW,286,18.0,21.0,8,0.00,,,0.00,315,WeatherCatV1.11B39,2013-03-23 23:57:00,
2013-03-23 17:02:00,71.7,9.9,29.83,WNW,290,18.0,18.0,9,0.00,,,0.00,301,WeatherCatV1.11B39,2013-03-24 00:02:00,
2013-03-23 17:07:00,71.7,9.9,29.83,WNW,286,14.0,18.0,9,0.00,,,0.00,281,WeatherCatV1.11B39,2013-03-24 00:07:00,
2013-03-23 17:12:00,71.4,9.7,29.83,WNW,297,6.0,16.0,9,0.00,,,0.00,257,WeatherCatV1.11B39,2013-03-24 00:12:00,
2013-03-23 17:17:00,71.7,9.9,29.83,WSW,251,8.0,9.0,9,0.00,,,0.00,239,WeatherCatV1.11B39,2013-03-24 00:17:00,
2013-03-23 17:22:00,71.1,9.4,29.83,West,280,7.0,11.0,9,0.00,,,0.00,218,WeatherCatV1.11B39,2013-03-24 00:22:00,
2013-03-23 17:27:00,71.2,9.5,29.84,WNW,290,5.0,11.0,9,0.00,,,0.00,190,WeatherCatV1.11B39,2013-03-24 00:27:00,
2013-03-23 17:32:00,71.2,9.5,29.83,WNW,295,12.0,12.0,9,0.00,,,0.00,172,WeatherCatV1.11B39,2013-03-24 00:32:00,
2013-03-23 17:37:00,70.8,9.2,29.84,WNW,299,10.0,12.0,9,0.00,,,0.00,153,WeatherCatV1.11B39,2013-03-24 00:37:00,
2013-03-23 17:42:00,70.5,9.0,29.84,WNW,284,9.0,10.0,9,0.00,,,0.00,134,WeatherCatV1.11B39,2013-03-24 00:42:00,
2013-03-23 17:47:00,70.4,8.9,29.84,WNW,292,12.0,14.0,9,0.00,,,0.00,109,WeatherCatV1.11B39,2013-03-24 00:47:00,
2013-03-23 17:52:00,70.2,8.7,29.84,West,259,7.0,10.0,9,0.00,,,0.00,93,WeatherCatV1.11B39,2013-03-24 00:52:00,
2013-03-23 17:57:00,69.9,8.5,29.84,West,281,12.0,16.0,9,0.00,,,0.00,74,WeatherCatV1.11B39,2013-03-24 00:57:00,
2013-03-23 18:02:00,69.6,8.3,29.84,WNW,295,5.0,8.0,9,0.00,,,0.00,60,WeatherCatV1.11B39,2013-03-24 01:02:00,
2013-03-23 18:07:00,69.4,10.5,29.85,WNW,291,11.0,11.0,10,0.00,,,0.00,47,WeatherCatV1.11B39,2013-03-24 01:07:00,
2013-03-23 18:12:00,69.2,10.3,29.85,WNW,290,4.0,8.0,10,0.00,,,0.00,35,WeatherCatV1.11B39,2013-03-24 01:12:00,
2013-03-23 18:17:00,69.0,10.2,29.84,WSW,248,7.0,9.0,10,0.00,,,0.00,26,WeatherCatV1.11B39,2013-03-24 01:17:00,
2013-03-23 18:22:00,68.7,10.0,29.85,West,272,3.0,7.0,10,0.00,,,0.00,19,WeatherCatV1.11B39,2013-03-24 01:22:00,
2013-03-23 18:27:00,68.3,9.6,29.85,NNW,327,1.0,4.0,10,0.00,,,0.00,14,WeatherCatV1.11B39,2013-03-24 01:27:00,
2013-03-23 18:32:00,67.9,9.3,29.85,NW,313,3.0,4.0,10,0.00,,,0.00,9,WeatherCatV1.11B39,2013-03-24 01:32:00,
2013-03-23 18:37:00,67.5,9.0,29.85,NNW,336,6.0,9.0,10,0.00,,,0.00,5,WeatherCatV1.11B39,2013-03-24 01:37:00,
2013-03-23 18:42:00,67.4,9.0,29.85,NNW,330,8.0,11.0,10,0.00,,,0.00,0,WeatherCatV1.11B39,2013-03-24 01:42:00,
2013-03-23 18:47:00,67.3,8.9,29.86,NNW,343,4.0,7.0,10,0.00,,,0.00,0,WeatherCatV1.11B39,2013-03-24 01:47:00,
2013-03-23 18:52:00,67.0,8.7,29.86,NW,319,10.0,16.0,10,0.00,,,0.00,0,WeatherCatV1.11B39,2013-03-24 01:52:00,
2013-03-23 18:57:00,66.7,10.5,29.86,NW,307,3.0,5.0,11,0.00,,,0.00,0,WeatherCatV1.11B39,2013-03-24 01:57:00,
2013-03-23 19:02:00,66.5,10.4,29.86,NW,312,6.0,7.0,11,0.00,,,0.00,0,WeatherCatV1.11B39,2013-03-24 02:02:00,
2013-03-23 19:07:00,66.3,10.2,29.86,NW,313,5.0,5.0,11,0.00,,,0.00,0,WeatherCatV1.11B39,2013-03-24 02:07:00,
2013-03-23 19:12:00,66.1,10.1,29.86,NW,321,6.0,9.0,11,0.00,,,0.00,0,WeatherCatV1.11B39,2013-03-24 02:12:00,
2013-03-23 19:17:00,66.2,10.2,29.86,WNW,299,4.0,7.0,11,0.00,,,0.00,0,WeatherCatV1.11B39,2013-03-24 02:17:00,
2013-03-23 19:22:00,66.2,8.0,29.86,West,276,3.0,5.0,10,0.00,,,0.00,0,WeatherCatV1.11B39,2013-03-24 02:22:00,
2013-03-23 19:27:00,65.9,9.9,29.87,West,276,4.0,5.0,11,0.00,,,0.00,0,WeatherCatV1.11B39,2013-03-24 02:27:00,
2013-03-23 19:32:00,65.4,9.5,29.87,West,277,3.0,4.0,11,0.00,,,0.00,0,WeatherCatV1.11B39,2013-03-24 02:32:00,
2013-03-23 19:37:00,65.0,9.2,29.86,WNW,290,3.0,7.0,11,0.00,,,0.00,0,WeatherCatV1.11B39,2013-03-24 02:37:00,
2013-03-23 19:42:00,65.0,9.2,29.87,West,280,3.0,5.0,11,0.00,,,0.00,0,WeatherCatV1.11B39,2013-03-24 02:42:00,
2013-03-23 19:47:00,64.7,9.0,29.87,WNW,284,2.0,3.0,11,0.00,,,0.00,0,WeatherCatV1.11B39,2013-03-24 02:47:00,
2013-03-23 19:52:00,64.0,8.5,29.87,WNW,286,3.0,5.0,11,0.00,,,0.00,0,WeatherCatV1.11B39,2013-03-24 02:52:00,
2013-03-23 19:57:00,63.5,10.0,29.87,WNW,286,0.0,1.0,12,0.00,,,0.00,0,WeatherCatV1.11B39,2013-03-24 02:57:00,
2013-03-23 20:02:00,62.5,9.2,29.87,WNW,286,3.0,4.0,12,0.00,,,0.00,0,WeatherCatV1.11B39,2013-03-24 03:02:00,
2013-03-23 20:07:00,62.1,8.9,29.88,WNW,282,2.0,3.0,12,0.00,,,0.00,0,WeatherCatV1.11B39,2013-03-24 03:07:00,
2013-03-23 20:12:00,61.8,10.5,29.88,WNW,282,1.0,3.0,13,0.00,,,0.00,0,WeatherCatV1.11B39,2013-03-24 03:12:00,
2013-03-23 20:17:00,61.4,10.1,29.88,WNW,282,2.0,2.0,13,0.00,,,0.00,0,WeatherCatV1.11B39,2013-03-24 03:17:00,
2013-03-23 20:22:00,61.5,10.2,29.88,WNW,282,2.0,2.0,13,0.00,,,0.00,0,WeatherCatV1.11B39,2013-03-24 03:22:00,
2013-03-23 20:27:00,61.1,9.9,29.89,WNW,282,1.0,2.0,13,0.00,,,0.00,0,WeatherCatV1.11B39,2013-03-24 03:27:00,
2013-03-23 20:32:00,60.4,9.4,29.89,West,280,2.0,4.0,13,0.00,,,0.00,0,WeatherCatV1.11B39,2013-03-24 03:32:00,
2013-03-23 20:37:00,59.8,10.5,29.89,West,280,0.0,0.0,14,0.00,,,0.00,0,WeatherCatV1.11B39,2013-03-24 03:37:00,
2013-03-23 20:42:00,59.0,11.4,29.89,West,280,0.0,2.0,15,0.00,,,0.00,0,WeatherCatV1.11B39,2013-03-24 03:42:00,
2013-03-23 20:47:00,58.3,9.3,29.90,West,280,0.0,1.0,14,0.00,,,0.00,0,WeatherCatV1.11B39,2013-03-24 03:47:00,
2013-03-23 20:52:00,58.1,10.7,29.90,West,280,1.0,1.0,15,0.00,,,0.00,0,WeatherCatV1.11B39,2013-03-24 03:52:00,
2013-03-23 20:57:00,57.8,10.5,29.90,West,280,0.0,1.0,15,0.00,,,0.00,0,WeatherCatV1.11B39,2013-03-24 03:57:00,
2013-03-23 21:00:00,57.6,10.3,29.90,West,280,0.0,1.0,15,0.00,,,0.00,0,WeatherCatV1.11B39,2013-03-24 04:00:00,
2013-03-23 21:01:00,57.4,11.6,29.90,West,280,0.0,1.0,16,0.00,,,0.00,0,WeatherCatV1.11B39,2013-03-24 04:01:00,
2013-03-23 21:06:00,56.7,11.0,29.90,West,280,0.0,1.0,16,0.00,,,0.00,0,WeatherCatV1.11B39,2013-03-24 04:06:00,
2013-03-23 21:11:00,56.1,11.9,29.90,West,280,1.0,2.0,17,0.00,,,0.00,0,WeatherCatV1.11B39,2013-03-24 04:11:00,
2013-03-23 21:16:00,55.8,11.7,29.90,West,280,1.0,2.0,17,0.00,,,0.00,0,WeatherCatV1.11B39,2013-03-24 04:16:00,
2013-03-23 21:21:00,55.7,11.6,29.90,West,280,1.0,2.0,17,0.00,,,0.00,0,WeatherCatV1.11B39,2013-03-24 04:21:00,
2013-03-23 21:26:00,55.1,12.4,29.90,West,281,1.0,2.0,18,0.00,,,0.00,0,WeatherCatV1.11B39,2013-03-24 04:26:00,
2013-03-23 21:31:00,55.0,12.3,29.90,WNW,289,0.0,2.0,18,0.00,,,0.00,0,WeatherCatV1.11B39,2013-03-24 04:31:00,
2013-03-23 21:36:00,54.9,12.2,29.91,WNW,289,2.0,2.0,18,0.00,,,0.00,0,WeatherCatV1.11B39,2013-03-24 04:36:00,
2013-03-23 21:41:00,54.9,12.2,29.91,WNW,289,1.0,2.0,18,0.00,,,0.00,0,WeatherCatV1.11B39,2013-03-24 04:41:00,
2013-03-23 21:46:00,54.5,11.9,29.91,WNW,289,1.0,1.0,18,0.00,,,0.00,0,WeatherCatV1.11B39,2013-03-24 04:46:00,
2013-03-23 21:51:00,53.9,12.6,29.91,WNW,289,1.0,1.0,19,0.00,,,0.00,0,WeatherCatV1.11B39,2013-03-24 04:51:00,
2013-03-23 21:56:00,53.1,11.9,29.91,WNW,289,1.0,1.0,19,0.00,,,0.00,0,WeatherCatV1.11B39,2013-03-24 04:56:00,
2013-03-23 22:01:00,52.7,12.8,29.92,WNW,289,0.0,0.0,20,0.00,,,0.00,0,WeatherCatV1.11B39,2013-03-24 05:01:00,
2013-03-23 22:06:00,52.6,12.7,29.92,WNW,289,0.0,0.0,20,0.00,,,0.00,0,WeatherCatV1.11B39,2013-03-24 05:06:00,
2013-03-23 22:11:00,51.9,13.2,29.92,WNW,289,1.0,1.0,21,0.00,,,0.00,0,WeatherCatV1.11B39,2013-03-24 05:11:00,
2013-03-23 22:16:00,51.8,13.1,29.92,WNW,289,1.0,2.0,21,0.00,,,0.00,0,WeatherCatV1.11B39,2013-03-24 05:16:00,
2013-03-23 22:21:00,51.4,13.9,29.92,WNW,289,0.0,1.0,22,0.00,,,0.00,0,WeatherCatV1.11B39,2013-03-24 05:21:00,
2013-03-23 22:26:00,50.5,13.1,29.92,WNW,289,1.0,3.0,22,0.00,,,0.00,0,WeatherCatV1.11B39,2013-03-24 05:26:00,
2013-03-23 22:31:00,49.7,13.4,29.92,WNW,289,1.0,3.0,23,0.00,,,0.00,0,WeatherCatV1.11B39,2013-03-24 05:31:00,
2013-03-23 22:36:00,50.4,14.0,29.92,WNW,289,0.0,0.0,23,0.00,,,0.00,0,WeatherCatV1.11B39,2013-03-24 05:36:00,
2013-03-23 22:41:00,50.3,13.9,29.92,WNW,289,2.0,3.0,23,0.00,,,0.00,0,WeatherCatV1.11B39,2013-03-24 05:41:00,
2013-03-23 22:46:00,50.0,13.7,29.92,WNW,289,1.0,2.0,23,0.00,,,0.00,0,WeatherCatV1.11B39,2013-03-24 05:46:00,
2013-03-23 22:51:00,49.6,13.3,29.92,WNW,290,1.0,3.0,23,0.00,,,0.00,0,WeatherCatV1.11B39,2013-03-24 05:51:00,
2013-03-23 22:56:00,50.0,12.7,29.92,WNW,290,1.0,2.0,22,0.00,,,0.00,0,WeatherCatV1.11B39,2013-03-24 05:56:00,
2013-03-23 23:01:00,49.9,13.6,29.92,WNW,290,1.0,1.0,23,0.00,,,0.00,0,WeatherCatV1.11B39,2013-03-24 06:01:00,
2013-03-23 23:06:00,49.5,13.3,29.92,WNW,290,0.0,2.0,23,0.00,,,0.00,0,WeatherCatV1.11B39,2013-03-24 06:06:00,
2013-03-23 23:11:00,49.3,13.1,29.92,WNW,290,0.0,1.0,23,0.00,,,0.00,0,WeatherCatV1.11B39,2013-03-24 06:11:00,
2013-03-23 23:16:00,48.9,12.8,29.92,WNW,290,2.0,2.0,23,0.00,,,0.00,0,WeatherCatV1.11B39,2013-03-24 06:16:00,
2013-03-23 23:21:00,48.8,12.7,29.92,WNW,290,0.0,0.0,23,0.00,,,0.00,0,WeatherCatV1.11B39,2013-03-24 06:21:00,
2013-03-23 23:26:00,48.3,13.2,29.92,WNW,290,0.0,1.0,24,0.00,,,0.00,0,WeatherCatV1.11B39,2013-03-24 06:26:00,
2013-03-23 23:31:00,47.7,12.7,29.93,WNW,290,2.0,3.0,24,0.00,,,0.00,0,WeatherCatV1.11B39,2013-03-24 06:31:00,
2013-03-23 23:36:00,47.8,13.7,29.93,WNW,290,1.0,3.0,25,0.00,,,0.00,0,WeatherCatV1.11B39,2013-03-24 06:36:00,
2013-03-23 23:41:00,47.8,13.7,29.93,WNW,290,2.0,3.0,25,0.00,,,0.00,0,WeatherCatV1.11B39,2013-03-24 06:41:00,
2013-03-23 23:46:00,47.9,13.8,29.93,North,353,2.0,3.0,25,0.00,,,0.00,0,WeatherCatV1.11B39,2013-03-24 06:46:00,
2013-03-23 23:51:00,47.9,14.7,29.93,North,353,2.0,3.0,26,0.00,,,0.00,0,WeatherCatV1.11B39,2013-03-24 06:51:00,
2013-03-23 23:56:00,47.8,13.7,29.93,North,353,1.0,2.0,25,0.00,,,0.00,0,WeatherCatV1.11B39,2013-03-24 06:56:00,